createdAt,value
2022-12-26T13:03:19.141Z,97778.44
2022-12-26T13:07:47.203Z,97772.47
2022-12-26T13:12:08.686Z,97760.22
2022-12-26T13:16:32.636Z,97759.06
2022-12-26T13:21:04.253Z,97752.75
2022-12-26T13:25:25.568Z,97743.75
2022-12-26T13:29:46.051Z,97744.47
2022-12-26T13:34:05.022Z,97754.66
2022-12-26T13:38:24.138Z,97748.59
2022-12-26T13:43:15.792Z,97749.22
2022-12-26T13:47:39.882Z,97740.59
2022-12-26T13:52:19.401Z,97734.25
2022-12-26T13:56:45.855Z,97740.81
2022-12-26T14:01:33.888Z,97745.97
2022-12-26T14:06:30.028Z,97750.81
2022-12-26T14:10:56.501Z,97752.38
2022-12-26T14:15:28.320Z,97748.91
2022-12-26T14:19:59.389Z,97750.00
2022-12-26T14:24:41.831Z,97748.91
2022-12-26T14:29:20.350Z,97752.78
2022-12-26T14:33:40.784Z,97744.69
2022-12-26T14:38:29.983Z,97754.59
2022-12-26T14:43:11.721Z,97764.28
2022-12-26T14:47:49.951Z,97767.66
2022-12-26T14:52:25.037Z,97766.38
2022-12-26T14:56:43.047Z,97758.25
2022-12-26T15:01:09.098Z,97769.19
2022-12-26T15:05:32.959Z,97765.84
2022-12-26T15:10:31.404Z,97764.81
2022-12-26T15:15:15.978Z,97767.28
2022-12-26T15:20:00.856Z,97756.03
2022-12-26T15:25:16.877Z,97755.59
2022-12-26T15:29:57.021Z,97744.78
2022-12-26T15:34:40.712Z,97754.56
2022-12-26T15:39:36.191Z,97746.00
2022-12-26T15:44:07.710Z,97740.91
2022-12-26T15:49:16.077Z,97738.97
2022-12-26T15:54:11.627Z,97728.69
2022-12-26T15:59:18.616Z,97738.53
2022-12-26T16:03:51.208Z,97731.88
2022-12-26T16:08:46.703Z,97725.97
2022-12-26T16:13:12.184Z,97725.41
2022-12-26T16:17:29.986Z,97724.13
2022-12-26T16:22:14.391Z,97730.38
2022-12-26T16:26:35.223Z,97726.47
2022-12-26T16:30:52.922Z,97737.50
2022-12-26T16:35:23.089Z,97741.72
2022-12-26T16:39:40.181Z,97738.81
2022-12-26T16:44:18.592Z,97734.88
2022-12-26T16:48:37.159Z,97705.09
2022-12-26T16:53:22.606Z,97705.34
2022-12-26T16:57:42.587Z,97733.09
2022-12-26T17:02:00.711Z,97732.34
2022-12-26T17:06:30.062Z,97775.44
2022-12-26T17:10:49.919Z,97775.03
2022-12-26T17:15:08.384Z,97756.09
2022-12-26T17:19:31.846Z,97713.97
2022-12-26T17:24:15.184Z,97698.63
2022-12-26T17:28:32.034Z,97714.91
2022-12-26T17:32:49.208Z,97717.41
2022-12-26T17:37:20.093Z,97736.63
2022-12-26T17:41:43.633Z,97747.59
2022-12-26T17:46:02.190Z,97764.66
2022-12-26T17:50:19.464Z,97769.44
2022-12-26T17:54:36.521Z,97755.34
2022-12-26T17:58:55.338Z,97759.53
2022-12-26T18:03:12.997Z,97772.97
2022-12-26T18:07:31.696Z,97765.00
2022-12-26T18:11:48.847Z,97770.13
2022-12-26T18:16:06.895Z,97754.84
2022-12-26T18:20:26.283Z,97774.56
2022-12-26T18:24:44.073Z,97778.38
2022-12-26T18:29:01.878Z,97779.94
2022-12-26T18:33:18.753Z,97766.22
2022-12-26T18:37:35.906Z,97767.00
2022-12-26T18:41:52.812Z,97767.78
2022-12-26T18:46:18.500Z,97769.44
2022-12-26T18:50:38.045Z,97763.38
2022-12-26T18:54:55.196Z,97762.75
2022-12-26T18:59:15.024Z,97759.81
2022-12-26T19:03:32.138Z,97766.50
2022-12-26T19:07:50.193Z,97776.94
2022-12-26T19:12:07.167Z,97772.97
2022-12-26T19:16:24.198Z,97772.81
2022-12-26T19:20:44.556Z,97779.50
2022-12-26T19:25:01.458Z,97786.28
2022-12-26T19:29:18.601Z,97790.72
2022-12-26T19:33:35.553Z,97797.56
2022-12-26T19:37:52.684Z,97792.94
2022-12-26T19:42:09.566Z,97795.47
2022-12-26T19:46:27.939Z,97793.38
2022-12-26T19:50:44.816Z,97785.72
2022-12-26T19:55:02.036Z,97800.84
2022-12-26T19:59:19.063Z,97803.22
2022-12-26T20:03:37.044Z,97806.41
2022-12-26T20:07:53.855Z,97809.84
2022-12-26T20:12:10.903Z,97813.94
2022-12-26T20:21:07.077Z,97817.13
2022-12-26T20:25:24.259Z,97819.16
2022-12-26T20:29:41.172Z,97820.44
2022-12-26T20:33:58.830Z,97827.91
2022-12-26T20:38:15.697Z,97829.16
2022-12-26T20:42:33.179Z,97830.56
2022-12-26T20:46:50.129Z,97821.91
2022-12-26T20:51:12.347Z,97825.81
2022-12-26T20:55:29.443Z,97815.78
2022-12-26T20:59:46.585Z,97841.25
2022-12-26T21:04:04.135Z,97830.25
2022-12-26T21:08:21.654Z,97839.97
2022-12-26T21:12:38.618Z,97841.38
2022-12-26T21:16:58.898Z,97834.94
2022-12-26T21:21:32.372Z,97853.00
2022-12-26T21:25:49.458Z,97848.88
2022-12-26T21:30:07.255Z,97843.97
2022-12-26T21:34:27.910Z,97842.09
2022-12-26T21:38:44.773Z,97846.28
2022-12-26T21:43:01.960Z,97854.22
2022-12-26T21:47:19.143Z,97834.38
2022-12-26T21:51:36.220Z,97838.03
2022-12-26T21:55:53.086Z,97841.72
2022-12-26T22:00:10.812Z,97840.63
2022-12-26T22:04:29.574Z,97836.25
2022-12-26T22:08:46.472Z,97822.41
2022-12-26T22:13:04.794Z,97828.91
2022-12-26T22:17:21.629Z,97829.13
2022-12-26T22:21:38.722Z,97816.72
2022-12-26T22:25:56.473Z,97816.81
2022-12-26T22:30:13.816Z,97821.16
2022-12-26T22:34:30.919Z,97831.03
2022-12-26T22:38:47.799Z,97829.06
2022-12-26T22:43:04.862Z,97830.34
2022-12-26T22:47:21.736Z,97830.97
2022-12-26T22:51:39.631Z,97841.66
2022-12-26T22:56:00.332Z,97824.00
2022-12-26T23:00:17.391Z,97808.34
2022-12-26T23:04:34.935Z,97800.47
2022-12-26T23:08:54.502Z,97812.03
2022-12-26T23:13:13.659Z,97806.88
2022-12-26T23:17:53.900Z,97806.69
2022-12-26T23:22:11.337Z,97801.81
2022-12-26T23:26:28.176Z,97802.59
2022-12-26T23:30:45.235Z,97808.63
2022-12-26T23:35:02.116Z,97792.94
2022-12-26T23:39:19.285Z,97778.63
2022-12-26T23:43:36.476Z,97782.53
2022-12-26T23:47:53.597Z,97779.47
2022-12-26T23:52:10.494Z,97775.50
2022-12-26T23:56:28.105Z,97757.03
